sensor_id;sensor_type;location;lat;lon;timestamp;temperature;humidity
69204;DHT22;56317;27.658;85.326;2023-09-19T00:00:46;19.70;99.90
69204;DHT22;56317;27.658;85.326;2023-09-19T00:03:15;19.80;99.90
69204;DHT22;56317;27.658;85.326;2023-09-19T00:05:43;19.80;99.90
69204;DHT22;56317;27.658;85.326;2023-09-19T00:08:10;19.80;99.90
69204;DHT22;56317;27.658;85.326;2023-09-19T00:10:39;19.80;99.90
69204;DHT22;56317;27.658;85.326;2023-09-19T00:13:08;19.80;99.90
69204;DHT22;56317;27.658;85.326;2023-09-19T00:15:46;19.80;99.90
69204;DHT22;56317;27.658;85.326;2023-09-19T00:18:18;19.90;99.90
69204;DHT22;56317;27.658;85.326;2023-09-19T00:20:47;19.90;99.90
69204;DHT22;56317;27.658;85.326;2023-09-19T00:23:15;19.90;99.90
69204;DHT22;56317;27.658;85.326;2023-09-19T00:25:42;19.90;99.90
69204;DHT22;56317;27.658;85.326;2023-09-19T00:28:09;19.90;99.90
69204;DHT22;56317;27.658;85.326;2023-09-19T00:30:37;19.90;99.90
69204;DHT22;56317;27.658;85.326;2023-09-19T00:33:07;19.90;99.90
69204;DHT22;56317;27.658;85.326;2023-09-19T00:35:34;20.00;99.90
69204;DHT22;56317;27.658;85.326;2023-09-19T00:38:03;20.00;99.90
69204;DHT22;56317;27.658;85.326;2023-09-19T00:40:30;20.10;99.90
69204;DHT22;56317;27.658;85.326;2023-09-19T00:42:59;20.20;99.90
69204;DHT22;56317;27.658;85.326;2023-09-19T00:45:30;20.20;99.90
69204;DHT22;56317;27.658;85.326;2023-09-19T00:47:57;20.40;99.90
69204;DHT22;56317;27.658;85.326;2023-09-19T00:50:30;20.40;99.90
69204;DHT22;56317;27.658;85.326;2023-09-19T00:52:59;20.50;99.90
69204;DHT22;56317;27.658;85.326;2023-09-19T00:55:26;20.60;99.90
69204;DHT22;56317;27.658;85.326;2023-09-19T00:57:56;20.70;99.90
69204;DHT22;56317;27.658;85.326;2023-09-19T01:00:23;20.80;99.90
69204;DHT22;56317;27.658;85.326;2023-09-19T01:02:51;20.90;99.90
69204;DHT22;56317;27.658;85.326;2023-09-19T01:05:18;21.00;99.90
69204;DHT22;56317;27.658;85.326;2023-09-19T01:07:46;21.20;99.90
69204;DHT22;56317;27.658;85.326;2023-09-19T01:10:17;21.30;99.90
69204;DHT22;56317;27.658;85.326;2023-09-19T01:15:49;21.60;99.90
69204;DHT22;56317;27.658;85.326;2023-09-19T01:26:30;22.00;99.90
69204;DHT22;56317;27.658;85.326;2023-09-19T01:32:04;22.00;99.90
69204;DHT22;56317;27.658;85.326;2023-09-19T01:34:48;22.10;99.90
69204;DHT22;56317;27.658;85.326;2023-09-19T01:37:21;22.20;99.90
69204;DHT22;56317;27.658;85.326;2023-09-19T01:40:02;22.20;99.90
69204;DHT22;56317;27.658;85.326;2023-09-19T01:42:54;22.30;99.90
69204;DHT22;56317;27.658;85.326;2023-09-19T01:48:44;22.50;99.90
69204;DHT22;56317;27.658;85.326;2023-09-19T01:51:32;22.70;99.90
69204;DHT22;56317;27.658;85.326;2023-09-19T01:54:10;22.80;99.90
69204;DHT22;56317;27.658;85.326;2023-09-19T01:56:56;22.90;99.90
69204;DHT22;56317;27.658;85.326;2023-09-19T01:59:28;23.10;99.90
69204;DHT22;56317;27.658;85.326;2023-09-19T02:02:01;23.10;99.90
69204;DHT22;56317;27.658;85.326;2023-09-19T02:04:32;23.20;99.90
69204;DHT22;56317;27.658;85.326;2023-09-19T02:07:00;23.40;99.90
69204;DHT22;56317;27.658;85.326;2023-09-19T02:09:27;23.50;99.90
69204;DHT22;56317;27.658;85.326;2023-09-19T02:11:54;23.60;99.90
69204;DHT22;56317;27.658;85.326;2023-09-19T02:14:22;23.60;99.90
69204;DHT22;56317;27.658;85.326;2023-09-19T02:16:49;23.70;99.90
69204;DHT22;56317;27.658;85.326;2023-09-19T02:19:17;23.60;99.90
69204;DHT22;56317;27.658;85.326;2023-09-19T02:21:44;23.70;99.90
69204;DHT22;56317;27.658;85.326;2023-09-19T02:24:11;23.80;99.90
69204;DHT22;56317;27.658;85.326;2023-09-19T02:26:39;24.00;99.90
69204;DHT22;56317;27.658;85.326;2023-09-19T02:29:06;24.20;99.90
69204;DHT22;56317;27.658;85.326;2023-09-19T02:31:33;24.30;99.90
69204;DHT22;56317;27.658;85.326;2023-09-19T02:34:00;24.30;99.90
69204;DHT22;56317;27.658;85.326;2023-09-19T02:36:27;24.30;99.90
69204;DHT22;56317;27.658;85.326;2023-09-19T02:38:57;24.40;99.90
69204;DHT22;56317;27.658;85.326;2023-09-19T02:41:24;24.60;99.90
69204;DHT22;56317;27.658;85.326;2023-09-19T02:43:51;24.80;99.90
69204;DHT22;56317;27.658;85.326;2023-09-19T02:46:18;24.90;99.90
69204;DHT22;56317;27.658;85.326;2023-09-19T02:48:45;25.00;99.90
69204;DHT22;56317;27.658;85.326;2023-09-19T02:51:13;25.20;99.90
69204;DHT22;56317;27.658;85.326;2023-09-19T02:53:40;25.20;99.90
69204;DHT22;56317;27.658;85.326;2023-09-19T02:56:08;25.40;99.90
69204;DHT22;56317;27.658;85.326;2023-09-19T02:58:38;25.40;99.90
69204;DHT22;56317;27.658;85.326;2023-09-19T03:01:12;25.60;99.90
69204;DHT22;56317;27.658;85.326;2023-09-19T03:03:39;25.70;99.90
69204;DHT22;56317;27.658;85.326;2023-09-19T03:06:07;25.80;99.90
69204;DHT22;56317;27.658;85.326;2023-09-19T03:08:36;25.80;99.90
69204;DHT22;56317;27.658;85.326;2023-09-19T03:11:06;25.90;99.90
69204;DHT22;56317;27.658;85.326;2023-09-19T03:13:35;26.00;99.90
69204;DHT22;56317;27.658;85.326;2023-09-19T03:16:06;26.30;99.90
69204;DHT22;56317;27.658;85.326;2023-09-19T03:18:36;26.50;99.90
69204;DHT22;56317;27.658;85.326;2023-09-19T03:21:03;26.50;99.90
69204;DHT22;56317;27.658;85.326;2023-09-19T03:23:30;26.50;99.90
69204;DHT22;56317;27.658;85.326;2023-09-19T03:25:58;26.50;99.90
69204;DHT22;56317;27.658;85.326;2023-09-19T03:28:25;26.50;99.90
69204;DHT22;56317;27.658;85.326;2023-09-19T03:31:05;26.70;99.90
69204;DHT22;56317;27.658;85.326;2023-09-19T03:33:34;27.10;99.90
69204;DHT22;56317;27.658;85.326;2023-09-19T03:36:04;27.50;99.90
69204;DHT22;56317;27.658;85.326;2023-09-19T03:38:32;27.80;99.90
69204;DHT22;56317;27.658;85.326;2023-09-19T03:41:01;28.00;99.90
69204;DHT22;56317;27.658;85.326;2023-09-19T03:43:28;28.20;99.90
69204;DHT22;56317;27.658;85.326;2023-09-19T03:45:56;28.30;99.90
69204;DHT22;56317;27.658;85.326;2023-09-19T03:48:23;28.50;99.90
69204;DHT22;56317;27.658;85.326;2023-09-19T03:50:51;28.60;99.90
69204;DHT22;56317;27.658;85.326;2023-09-19T03:53:18;28.80;99.90
69204;DHT22;56317;27.658;85.326;2023-09-19T03:55:46;29.00;99.90
69204;DHT22;56317;27.658;85.326;2023-09-19T03:58:13;29.00;99.90
69204;DHT22;56317;27.658;85.326;2023-09-19T04:00:40;29.00;99.90
69204;DHT22;56317;27.658;85.326;2023-09-19T04:03:08;29.20;99.90
69204;DHT22;56317;27.658;85.326;2023-09-19T04:05:37;29.30;99.90
69204;DHT22;56317;27.658;85.326;2023-09-19T04:08:04;29.40;99.90
69204;DHT22;56317;27.658;85.326;2023-09-19T04:10:32;29.60;99.90
69204;DHT22;56317;27.658;85.326;2023-09-19T04:12:59;29.70;99.90
69204;DHT22;56317;27.658;85.326;2023-09-19T04:15:26;29.80;99.90
69204;DHT22;56317;27.658;85.326;2023-09-19T04:17:53;30.00;99.90
69204;DHT22;56317;27.658;85.326;2023-09-19T04:20:21;30.30;99.90
69204;DHT22;56317;27.658;85.326;2023-09-19T04:22:51;30.60;99.90
69204;DHT22;56317;27.658;85.326;2023-09-19T04:25:19;30.90;99.90
69204;DHT22;56317;27.658;85.326;2023-09-19T04:27:46;31.00;99.90
69204;DHT22;56317;27.658;85.326;2023-09-19T04:30:14;30.90;99.90
69204;DHT22;56317;27.658;85.326;2023-09-19T04:32:44;30.80;99.90
69204;DHT22;56317;27.658;85.326;2023-09-19T04:35:18;30.80;99.90
69204;DHT22;56317;27.658;85.326;2023-09-19T04:37:45;30.70;99.90
69204;DHT22;56317;27.658;85.326;2023-09-19T04:40:13;31.00;99.90
69204;DHT22;56317;27.658;85.326;2023-09-19T04:42:44;31.40;99.90
69204;DHT22;56317;27.658;85.326;2023-09-19T04:45:12;31.80;99.90
69204;DHT22;56317;27.658;85.326;2023-09-19T04:47:39;32.10;99.90
69204;DHT22;56317;27.658;85.326;2023-09-19T04:50:08;32.30;98.90
69204;DHT22;56317;27.658;85.326;2023-09-19T04:52:40;32.30;98.60
69204;DHT22;56317;27.658;85.326;2023-09-19T04:55:30;32.30;97.50
69204;DHT22;56317;27.658;85.326;2023-09-19T04:58:00;32.20;97.40
69204;DHT22;56317;27.658;85.326;2023-09-19T05:00:27;32.50;97.60
69204;DHT22;56317;27.658;85.326;2023-09-19T05:02:57;32.70;95.60
69204;DHT22;56317;27.658;85.326;2023-09-19T05:05:26;32.60;96.20
69204;DHT22;56317;27.658;85.326;2023-09-19T05:07:53;32.90;95.10
69204;DHT22;56317;27.658;85.326;2023-09-19T05:10:20;33.10;95.90
69204;DHT22;56317;27.658;85.326;2023-09-19T05:12:49;33.30;95.40
69204;DHT22;56317;27.658;85.326;2023-09-19T05:15:21;32.90;95.10
69204;DHT22;56317;27.658;85.326;2023-09-19T05:17:49;32.80;96.30
69204;DHT22;56317;27.658;85.326;2023-09-19T05:20:21;32.90;95.70
69204;DHT22;56317;27.658;85.326;2023-09-19T05:23:07;33.70;95.10
69204;DHT22;56317;27.658;85.326;2023-09-19T05:25:40;34.90;94.20
69204;DHT22;56317;27.658;85.326;2023-09-19T05:28:10;36.00;92.70
69204;DHT22;56317;27.658;85.326;2023-09-19T05:30:42;36.50;92.20
69204;DHT22;56317;27.658;85.326;2023-09-19T05:33:09;37.60;91.10
69204;DHT22;56317;27.658;85.326;2023-09-19T05:35:37;38.30;89.80
69204;DHT22;56317;27.658;85.326;2023-09-19T05:38:06;38.90;86.90
69204;DHT22;56317;27.658;85.326;2023-09-19T05:40:35;39.60;84.90
69204;DHT22;56317;27.658;85.326;2023-09-19T05:43:04;40.30;84.20
69204;DHT22;56317;27.658;85.326;2023-09-19T05:45:32;41.30;81.10
69204;DHT22;56317;27.658;85.326;2023-09-19T05:48:12;42.00;77.40
69204;DHT22;56317;27.658;85.326;2023-09-19T05:50:43;42.00;75.30
69204;DHT22;56317;27.658;85.326;2023-09-19T05:53:14;42.10;75.10
69204;DHT22;56317;27.658;85.326;2023-09-19T05:55:41;42.40;72.60
69204;DHT22;56317;27.658;85.326;2023-09-19T05:58:09;42.40;71.80
69204;DHT22;56317;27.658;85.326;2023-09-19T06:00:36;42.50;70.00
69204;DHT22;56317;27.658;85.326;2023-09-19T06:03:05;42.60;70.00
69204;DHT22;56317;27.658;85.326;2023-09-19T06:05:32;42.20;70.30
69204;DHT22;56317;27.658;85.326;2023-09-19T06:07:59;43.00;69.70
69204;DHT22;56317;27.658;85.326;2023-09-19T06:10:27;44.00;67.40
69204;DHT22;56317;27.658;85.326;2023-09-19T06:12:54;44.40;65.30
69204;DHT22;56317;27.658;85.326;2023-09-19T06:15:24;44.60;64.60
69204;DHT22;56317;27.658;85.326;2023-09-19T06:17:56;44.70;65.10
69204;DHT22;56317;27.658;85.326;2023-09-19T06:20:27;45.10;62.40
69204;DHT22;56317;27.658;85.326;2023-09-19T06:22:55;45.20;62.60
69204;DHT22;56317;27.658;85.326;2023-09-19T06:25:22;46.00;60.70
69204;DHT22;56317;27.658;85.326;2023-09-19T06:27:50;45.70;61.60
69204;DHT22;56317;27.658;85.326;2023-09-19T06:30:23;46.00;59.90
69204;DHT22;56317;27.658;85.326;2023-09-19T06:32:56;46.10;58.80
69204;DHT22;56317;27.658;85.326;2023-09-19T06:35:23;46.00;58.50
69204;DHT22;56317;27.658;85.326;2023-09-19T06:37:52;46.50;59.90
69204;DHT22;56317;27.658;85.326;2023-09-19T06:40:19;47.20;58.50
69204;DHT22;56317;27.658;85.326;2023-09-19T06:42:50;46.80;56.60
69204;DHT22;56317;27.658;85.326;2023-09-19T06:45:18;46.20;57.00
69204;DHT22;56317;27.658;85.326;2023-09-19T06:47:46;45.40;57.50
69204;DHT22;56317;27.658;85.326;2023-09-19T06:50:21;45.00;58.40
69204;DHT22;56317;27.658;85.326;2023-09-19T06:52:52;44.90;59.30
69204;DHT22;56317;27.658;85.326;2023-09-19T06:55:22;45.40;56.80
69204;DHT22;56317;27.658;85.326;2023-09-19T06:57:57;45.70;57.50
69204;DHT22;56317;27.658;85.326;2023-09-19T07:00:25;46.20;56.50
69204;DHT22;56317;27.658;85.326;2023-09-19T07:03:03;46.20;56.10
69204;DHT22;56317;27.658;85.326;2023-09-19T07:05:34;46.00;55.50
69204;DHT22;56317;27.658;85.326;2023-09-19T07:08:11;46.00;56.90
69204;DHT22;56317;27.658;85.326;2023-09-19T07:10:39;45.50;56.80
69204;DHT22;56317;27.658;85.326;2023-09-19T07:13:08;43.90;57.10
69204;DHT22;56317;27.658;85.326;2023-09-19T07:15:38;42.90;58.60
69204;DHT22;56317;27.658;85.326;2023-09-19T07:18:07;43.00;58.40
69204;DHT22;56317;27.658;85.326;2023-09-19T07:20:37;41.80;59.20
69204;DHT22;56317;27.658;85.326;2023-09-19T07:23:05;40.10;61.50
69204;DHT22;56317;27.658;85.326;2023-09-19T07:25:32;38.20;62.60
69204;DHT22;56317;27.658;85.326;2023-09-19T07:27:59;36.70;65.60
69204;DHT22;56317;27.658;85.326;2023-09-19T07:30:27;37.60;67.70
69204;DHT22;56317;27.658;85.326;2023-09-19T07:32:55;38.80;64.50
69204;DHT22;56317;27.658;85.326;2023-09-19T07:35:23;38.20;64.70
69204;DHT22;56317;27.658;85.326;2023-09-19T07:37:50;37.40;66.10
69204;DHT22;56317;27.658;85.326;2023-09-19T07:40:18;36.70;66.90
69204;DHT22;56317;27.658;85.326;2023-09-19T07:42:46;35.90;71.20
69204;DHT22;56317;27.658;85.326;2023-09-19T07:45:14;35.30;75.00
69204;DHT22;56317;27.658;85.326;2023-09-19T07:47:46;34.60;75.80
69204;DHT22;56317;27.658;85.326;2023-09-19T07:50:14;34.00;77.30
69204;DHT22;56317;27.658;85.326;2023-09-19T07:52:42;33.40;78.70
69204;DHT22;56317;27.658;85.326;2023-09-19T07:55:10;33.40;79.20
69204;DHT22;56317;27.658;85.326;2023-09-19T07:57:43;33.00;79.80
69204;DHT22;56317;27.658;85.326;2023-09-19T08:00:11;32.20;81.00
69204;DHT22;56317;27.658;85.326;2023-09-19T08:02:42;31.70;82.90
69204;DHT22;56317;27.658;85.326;2023-09-19T08:05:09;31.20;83.20
69204;DHT22;56317;27.658;85.326;2023-09-19T08:07:37;30.70;85.40
69204;DHT22;56317;27.658;85.326;2023-09-19T08:10:05;30.20;89.20
69204;DHT22;56317;27.658;85.326;2023-09-19T08:12:40;29.50;90.40
69204;DHT22;56317;27.658;85.326;2023-09-19T08:15:15;28.60;91.50
69204;DHT22;56317;27.658;85.326;2023-09-19T08:17:43;27.80;92.40
69204;DHT22;56317;27.658;85.326;2023-09-19T08:20:11;27.10;94.10
69204;DHT22;56317;27.658;85.326;2023-09-19T08:25:16;26.20;96.90
69204;DHT22;56317;27.658;85.326;2023-09-19T08:27:46;25.90;96.70
69204;DHT22;56317;27.658;85.326;2023-09-19T08:30:16;25.80;99.00
69204;DHT22;56317;27.658;85.326;2023-09-19T08:32:59;25.70;99.90
69204;DHT22;56317;27.658;85.326;2023-09-19T08:35:27;25.70;99.90
69204;DHT22;56317;27.658;85.326;2023-09-19T08:37:54;25.90;99.90
69204;DHT22;56317;27.658;85.326;2023-09-19T08:40:22;26.10;99.90
69204;DHT22;56317;27.658;85.326;2023-09-19T08:42:50;26.30;99.90
69204;DHT22;56317;27.658;85.326;2023-09-19T08:45:18;26.20;99.90
69204;DHT22;56317;27.658;85.326;2023-09-19T08:50:51;25.90;99.90
69204;DHT22;56317;27.658;85.326;2023-09-19T08:53:52;25.60;99.90
69204;DHT22;56317;27.658;85.326;2023-09-19T08:56:22;25.40;99.90
69204;DHT22;56317;27.658;85.326;2023-09-19T08:59:05;25.30;99.90
69204;DHT22;56317;27.658;85.326;2023-09-19T09:01:38;25.10;99.90
69204;DHT22;56317;27.658;85.326;2023-09-19T09:04:10;25.10;99.90
69204;DHT22;56317;27.658;85.326;2023-09-19T09:06:39;25.10;99.90
69204;DHT22;56317;27.658;85.326;2023-09-19T09:09:07;25.30;99.90
69204;DHT22;56317;27.658;85.326;2023-09-19T09:11:36;25.30;99.90
69204;DHT22;56317;27.658;85.326;2023-09-19T09:14:07;25.30;99.90
69204;DHT22;56317;27.658;85.326;2023-09-19T09:16:35;25.20;99.90
69204;DHT22;56317;27.658;85.326;2023-09-19T09:19:02;25.10;99.90
69204;DHT22;56317;27.658;85.326;2023-09-19T09:21:30;25.10;99.90
69204;DHT22;56317;27.658;85.326;2023-09-19T09:24:27;25.20;99.90
69204;DHT22;56317;27.658;85.326;2023-09-19T09:27:00;25.30;99.90
69204;DHT22;56317;27.658;85.326;2023-09-19T09:29:47;25.30;99.90
69204;DHT22;56317;27.658;85.326;2023-09-19T09:32:27;25.20;99.90
69204;DHT22;56317;27.658;85.326;2023-09-19T09:35:02;25.10;99.90
69204;DHT22;56317;27.658;85.326;2023-09-19T09:37:30;25.10;99.90
69204;DHT22;56317;27.658;85.326;2023-09-19T09:40:02;25.10;99.90
69204;DHT22;56317;27.658;85.326;2023-09-19T09:42:41;25.10;99.90
69204;DHT22;56317;27.658;85.326;2023-09-19T09:45:23;25.10;99.90
69204;DHT22;56317;27.658;85.326;2023-09-19T09:48:00;25.10;99.90
69204;DHT22;56317;27.658;85.326;2023-09-19T09:50:34;25.10;99.90
69204;DHT22;56317;27.658;85.326;2023-09-19T09:53:27;25.10;99.90
69204;DHT22;56317;27.658;85.326;2023-09-19T09:56:08;25.20;99.90
69204;DHT22;56317;27.658;85.326;2023-09-19T09:58:50;25.20;99.90
69204;DHT22;56317;27.658;85.326;2023-09-19T10:01:22;25.30;99.90
69204;DHT22;56317;27.658;85.326;2023-09-19T10:04:01;25.20;99.90
69204;DHT22;56317;27.658;85.326;2023-09-19T10:06:40;25.30;99.90
69204;DHT22;56317;27.658;85.326;2023-09-19T10:09:14;25.30;99.90
69204;DHT22;56317;27.658;85.326;2023-09-19T10:11:45;25.40;99.90
69204;DHT22;56317;27.658;85.326;2023-09-19T10:14:17;25.40;99.90
69204;DHT22;56317;27.658;85.326;2023-09-19T10:16:54;25.40;99.90
69204;DHT22;56317;27.658;85.326;2023-09-19T10:19:54;25.40;99.90
69204;DHT22;56317;27.658;85.326;2023-09-19T10:22:26;25.40;99.90
69204;DHT22;56317;27.658;85.326;2023-09-19T10:24:54;25.40;99.90
69204;DHT22;56317;27.658;85.326;2023-09-19T10:27:22;25.30;99.90
69204;DHT22;56317;27.658;85.326;2023-09-19T10:29:50;25.20;99.90
69204;DHT22;56317;27.658;85.326;2023-09-19T10:32:18;25.10;99.90
69204;DHT22;56317;27.658;85.326;2023-09-19T10:34:52;25.00;99.90
69204;DHT22;56317;27.658;85.326;2023-09-19T10:37:23;24.90;99.90
69204;DHT22;56317;27.658;85.326;2023-09-19T10:39:53;24.80;99.90
69204;DHT22;56317;27.658;85.326;2023-09-19T10:42:23;24.70;99.90
69204;DHT22;56317;27.658;85.326;2023-09-19T10:44:55;24.60;99.90
69204;DHT22;56317;27.658;85.326;2023-09-19T10:47:26;24.50;99.90
69204;DHT22;56317;27.658;85.326;2023-09-19T10:49:53;24.40;99.90
69204;DHT22;56317;27.658;85.326;2023-09-19T10:52:23;24.40;99.90
69204;DHT22;56317;27.658;85.326;2023-09-19T10:54:53;24.40;99.90
69204;DHT22;56317;27.658;85.326;2023-09-19T10:57:24;24.40;99.90
69204;DHT22;56317;27.658;85.326;2023-09-19T11:00:09;24.30;99.90
69204;DHT22;56317;27.658;85.326;2023-09-19T11:05:41;24.20;99.90
69204;DHT22;56317;27.658;85.326;2023-09-19T11:08:09;24.20;99.90
69204;DHT22;56317;27.658;85.326;2023-09-19T11:10:50;24.10;99.90
69204;DHT22;56317;27.658;85.326;2023-09-19T11:13:28;24.00;99.90
69204;DHT22;56317;27.658;85.326;2023-09-19T11:26:49;23.70;99.90
69204;DHT22;56317;27.658;85.326;2023-09-19T11:29:27;23.60;99.90
69204;DHT22;56317;27.658;85.326;2023-09-19T11:31:56;23.60;99.90
69204;DHT22;56317;27.658;85.326;2023-09-19T11:34:39;23.40;99.90
69204;DHT22;56317;27.658;85.326;2023-09-19T11:40:07;23.40;99.90
69204;DHT22;56317;27.658;85.326;2023-09-19T11:42:44;23.20;99.90
69204;DHT22;56317;27.658;85.326;2023-09-19T11:48:24;23.10;99.90
69204;DHT22;56317;27.658;85.326;2023-09-19T11:50:53;23.00;99.90
69204;DHT22;56317;27.658;85.326;2023-09-19T11:53:21;22.90;99.90
69204;DHT22;56317;27.658;85.326;2023-09-19T11:55:50;22.90;99.90
69204;DHT22;56317;27.658;85.326;2023-09-19T11:58:19;22.80;99.90
69204;DHT22;56317;27.658;85.326;2023-09-19T12:00:47;22.80;99.90
69204;DHT22;56317;27.658;85.326;2023-09-19T12:03:22;22.80;99.90
69204;DHT22;56317;27.658;85.326;2023-09-19T12:05:49;22.70;99.90
69204;DHT22;56317;27.658;85.326;2023-09-19T12:08:16;22.70;99.90
69204;DHT22;56317;27.658;85.326;2023-09-19T12:10:51;22.70;99.90
69204;DHT22;56317;27.658;85.326;2023-09-19T12:13:21;22.70;99.90
69204;DHT22;56317;27.658;85.326;2023-09-19T12:15:48;22.60;99.90
69204;DHT22;56317;27.658;85.326;2023-09-19T12:18:30;22.60;99.90
69204;DHT22;56317;27.658;85.326;2023-09-19T12:20:58;22.60;99.90
69204;DHT22;56317;27.658;85.326;2023-09-19T12:23:25;22.50;99.90
69204;DHT22;56317;27.658;85.326;2023-09-19T12:25:54;22.50;99.90
69204;DHT22;56317;27.658;85.326;2023-09-19T12:28:26;22.40;99.90
69204;DHT22;56317;27.658;85.326;2023-09-19T12:30:54;22.40;99.90
69204;DHT22;56317;27.658;85.326;2023-09-19T12:33:22;22.40;99.90
69204;DHT22;56317;27.658;85.326;2023-09-19T12:35:52;22.40;99.90
69204;DHT22;56317;27.658;85.326;2023-09-19T12:38:27;22.30;99.90
69204;DHT22;56317;27.658;85.326;2023-09-19T12:41:02;22.30;99.90
69204;DHT22;56317;27.658;85.326;2023-09-19T12:43:30;22.30;99.90
69204;DHT22;56317;27.658;85.326;2023-09-19T12:46:02;22.30;99.90
69204;DHT22;56317;27.658;85.326;2023-09-19T12:48:31;22.30;99.90
69204;DHT22;56317;27.658;85.326;2023-09-19T12:51:11;22.20;99.90
69204;DHT22;56317;27.658;85.326;2023-09-19T12:53:44;22.20;99.90
69204;DHT22;56317;27.658;85.326;2023-09-19T12:56:14;22.20;99.90
69204;DHT22;56317;27.658;85.326;2023-09-19T12:58:58;22.20;99.90
69204;DHT22;56317;27.658;85.326;2023-09-19T13:01:29;22.20;99.90
69204;DHT22;56317;27.658;85.326;2023-09-19T13:04:18;22.20;99.90
69204;DHT22;56317;27.658;85.326;2023-09-19T13:06:48;22.20;99.90
69204;DHT22;56317;27.658;85.326;2023-09-19T13:09:17;22.20;99.90
69204;DHT22;56317;27.658;85.326;2023-09-19T13:11:46;22.20;99.90
69204;DHT22;56317;27.658;85.326;2023-09-19T13:14:17;22.20;99.90
69204;DHT22;56317;27.658;85.326;2023-09-19T13:17:00;22.20;99.90
69204;DHT22;56317;27.658;85.326;2023-09-19T13:19:38;22.20;99.90
69204;DHT22;56317;27.658;85.326;2023-09-19T13:22:39;22.20;99.90
69204;DHT22;56317;27.658;85.326;2023-09-19T13:25:14;22.20;99.90
69204;DHT22;56317;27.658;85.326;2023-09-19T13:27:46;22.20;99.90
69204;DHT22;56317;27.658;85.326;2023-09-19T13:30:15;22.10;99.90
69204;DHT22;56317;27.658;85.326;2023-09-19T13:32:42;22.10;99.90
69204;DHT22;56317;27.658;85.326;2023-09-19T13:35:10;22.10;99.90
69204;DHT22;56317;27.658;85.326;2023-09-19T13:37:42;22.20;99.90
69204;DHT22;56317;27.658;85.326;2023-09-19T13:40:14;22.20;99.90
69204;DHT22;56317;27.658;85.326;2023-09-19T13:42:43;22.10;99.90
69204;DHT22;56317;27.658;85.326;2023-09-19T13:45:10;22.20;99.90
69204;DHT22;56317;27.658;85.326;2023-09-19T13:47:39;22.20;99.90
69204;DHT22;56317;27.658;85.326;2023-09-19T13:50:06;22.10;99.90
69204;DHT22;56317;27.658;85.326;2023-09-19T13:52:34;22.10;99.90
69204;DHT22;56317;27.658;85.326;2023-09-19T13:55:01;22.10;99.90
69204;DHT22;56317;27.658;85.326;2023-09-19T13:57:28;22.10;99.90
69204;DHT22;56317;27.658;85.326;2023-09-19T13:59:56;22.00;99.90
69204;DHT22;56317;27.658;85.326;2023-09-19T14:02:23;22.00;99.90
69204;DHT22;56317;27.658;85.326;2023-09-19T14:04:51;21.90;99.90
69204;DHT22;56317;27.658;85.326;2023-09-19T14:07:18;21.90;99.90
69204;DHT22;56317;27.658;85.326;2023-09-19T14:09:47;21.90;99.90
69204;DHT22;56317;27.658;85.326;2023-09-19T14:12:14;21.90;99.90
69204;DHT22;56317;27.658;85.326;2023-09-19T14:14:41;21.90;99.90
69204;DHT22;56317;27.658;85.326;2023-09-19T14:17:09;21.80;99.90
69204;DHT22;56317;27.658;85.326;2023-09-19T14:19:36;21.80;99.90
69204;DHT22;56317;27.658;85.326;2023-09-19T14:22:03;21.80;99.90
69204;DHT22;56317;27.658;85.326;2023-09-19T14:24:34;21.90;99.90
69204;DHT22;56317;27.658;85.326;2023-09-19T14:27:01;21.80;99.90
69204;DHT22;56317;27.658;85.326;2023-09-19T14:29:30;21.80;99.90
69204;DHT22;56317;27.658;85.326;2023-09-19T14:31:57;21.80;99.90
69204;DHT22;56317;27.658;85.326;2023-09-19T14:34:24;21.80;99.90
69204;DHT22;56317;27.658;85.326;2023-09-19T14:36:52;21.80;99.90
69204;DHT22;56317;27.658;85.326;2023-09-19T14:39:20;21.80;99.90
69204;DHT22;56317;27.658;85.326;2023-09-19T14:41:47;21.80;99.90
69204;DHT22;56317;27.658;85.326;2023-09-19T14:44:15;21.80;99.90
69204;DHT22;56317;27.658;85.326;2023-09-19T14:46:43;21.80;99.90
69204;DHT22;56317;27.658;85.326;2023-09-19T14:49:13;21.80;99.90
69204;DHT22;56317;27.658;85.326;2023-09-19T14:51:43;21.70;99.90
69204;DHT22;56317;27.658;85.326;2023-09-19T14:54:13;21.70;99.90
69204;DHT22;56317;27.658;85.326;2023-09-19T14:56:43;21.70;99.90
69204;DHT22;56317;27.658;85.326;2023-09-19T14:59:11;21.70;99.90
69204;DHT22;56317;27.658;85.326;2023-09-19T15:01:39;21.70;99.90
69204;DHT22;56317;27.658;85.326;2023-09-19T15:04:07;21.70;99.90
69204;DHT22;56317;27.658;85.326;2023-09-19T15:06:35;21.70;99.90
69204;DHT22;56317;27.658;85.326;2023-09-19T15:09:02;21.70;99.90
69204;DHT22;56317;27.658;85.326;2023-09-19T15:11:31;21.70;99.90
69204;DHT22;56317;27.658;85.326;2023-09-19T15:13:58;21.70;99.90
69204;DHT22;56317;27.658;85.326;2023-09-19T15:16:25;21.70;99.90
69204;DHT22;56317;27.658;85.326;2023-09-19T15:18:53;21.80;99.90
69204;DHT22;56317;27.658;85.326;2023-09-19T15:21:21;21.80;99.90
69204;DHT22;56317;27.658;85.326;2023-09-19T15:23:49;21.80;99.90
69204;DHT22;56317;27.658;85.326;2023-09-19T15:26:16;21.80;99.90
69204;DHT22;56317;27.658;85.326;2023-09-19T15:28:46;21.80;99.90
69204;DHT22;56317;27.658;85.326;2023-09-19T15:31:14;21.90;99.90
69204;DHT22;56317;27.658;85.326;2023-09-19T15:33:41;21.90;99.90
69204;DHT22;56317;27.658;85.326;2023-09-19T15:36:10;21.90;99.90
69204;DHT22;56317;27.658;85.326;2023-09-19T15:41:31;22.00;99.90
69204;DHT22;56317;27.658;85.326;2023-09-19T15:44:00;22.10;99.90
69204;DHT22;56317;27.658;85.326;2023-09-19T15:46:31;22.00;99.90
69204;DHT22;56317;27.658;85.326;2023-09-19T15:49:02;22.00;99.90
69204;DHT22;56317;27.658;85.326;2023-09-19T15:51:29;22.00;99.90
69204;DHT22;56317;27.658;85.326;2023-09-19T15:53:57;22.00;99.90
69204;DHT22;56317;27.658;85.326;2023-09-19T15:56:26;22.00;99.90
69204;DHT22;56317;27.658;85.326;2023-09-19T15:58:54;22.00;99.90
69204;DHT22;56317;27.658;85.326;2023-09-19T16:01:22;22.00;99.90
69204;DHT22;56317;27.658;85.326;2023-09-19T16:03:51;22.00;99.90
69204;DHT22;56317;27.658;85.326;2023-09-19T16:06:29;21.90;99.90
69204;DHT22;56317;27.658;85.326;2023-09-19T16:08:58;22.00;99.90
69204;DHT22;56317;27.658;85.326;2023-09-19T16:11:27;21.90;99.90
69204;DHT22;56317;27.658;85.326;2023-09-19T16:13:54;21.90;99.90
69204;DHT22;56317;27.658;85.326;2023-09-19T16:16:23;21.90;99.90
69204;DHT22;56317;27.658;85.326;2023-09-19T16:18:55;21.90;99.90
69204;DHT22;56317;27.658;85.326;2023-09-19T16:21:24;21.90;99.90